Othello — LXOD — position and weather

sailwx.info

Track history (hours):
 
Tides and Currents Weather Stations Pressure Air Temp Water Temp Dewpoint Dewpoint Depression Visibility Wind Speed Wind Dir Waves Ship Positions

Othello

Last reported at 2015-Mar-27 18:06 UTC. Time now 2015-Mar-31 03:22 UTC.
Position N 39°26' W 009°55'.

Length 104 m; draft 7.4 m.

Type: Ship. MMSI: 253279000.

Date/timePositionNaut miles runAvg speedWind from/ knotsBaromVisibWave heightAir tempDewpointWater temp
2015-Mar-27 18:06N 39°26' W 009°55'810.1
2015-Mar-27 17:18N 39°18' W 009°56'810.1
2015-Mar-27 16:32N 39°10' W 009°56'1110.3
2015-Mar-27 15:26N 38°58' W 009°57'910.4
2015-Mar-27 14:33N 38°49' W 009°56'1110.6
2015-Mar-27 13:33N 38°39' W 009°55'1010.5
2015-Mar-27 12:33N 38°28' W 009°53'1110.6
2015-Mar-27 11:33N 38°18' W 009°50'1110.6
2015-Mar-27 10:32N 38°07' W 009°48'1010.3
2015-Mar-27 09:33N 37°57' W 009°46'1110.6
2015-Mar-27 08:32N 37°47' W 009°43'1110.7
2015-Mar-27 07:31N 37°36' W 009°46'10 9.9
2015-Mar-27 06:31N 37°27' W 009°50'24 8.2
2015-Mar-27 03:33N 37°02' W 009°52'  
2015-Mar-21 10:31N 35°59' W 005°29'1010.4
2015-Mar-21 09:33N 36°03' W 005°18'20612.1
2015-Mar-20 16:28N 37°07' W 001°13'1212.8
2015-Mar-20 15:33N 37°15' W 001°02'1313.0
2015-Mar-20 14:33N 37°24' W 000°50'1413.6
2015-Mar-20 13:33N 37°32' W 000°37'1313.0
2015-Mar-20 12:34N 37°42' W 000°27'1312.8
2015-Mar-20 11:33N 37°54' W 000°19'1313.1
2015-Mar-20 10:33N 38°05' W 000°10'11813.0
2015-Mar-20 01:30N 39°31' E 001°33'1412.6
2015-Mar-20 00:25N 39°39' E 001°47'1112.4
2015-Mar-19 23:33N 39°47' E 001°57'1312.6
2015-Mar-19 22:33N 39°55' E 002°10'1312.7
2015-Mar-19 21:33N 40°03' E 002°22'1312.7
2015-Mar-19 20:33N 40°12' E 002°34'1312.7
2015-Mar-19 19:33N 40°20' E 002°47'1312.9
2015-Mar-19 18:33N 40°29' E 002°60'1312.8
2015-Mar-19 17:33N 40°37' E 003°13'1312.8
2015-Mar-19 16:33N 40°46' E 003°25'1312.7
2015-Mar-19 15:33N 40°54' E 003°38'1313.0
2015-Mar-19 14:32N 41°03' E 003°51'1615.3
2015-Mar-19 13:30N 41°13' E 004°07'1010.1
2015-Mar-19 12:31N 41°19' E 004°17'1413.9
2015-Mar-19 11:30N 41°29' E 004°31'1111.6
2015-Mar-19 10:33N 41°36' E 004°42'1713.1
2015-Mar-19 09:16N 41°47' E 004°59'913.4
2015-Mar-19 08:33N 41°53' E 005°09'1312.5
2015-Mar-19 07:32N 42°02' E 005°21'1313.0
2015-Mar-19 06:32N 42°10' E 005°35'5213.1
2015-Mar-19 02:31N 42°45' E 006°28'1313.5
2015-Mar-19 01:33N 42°53' E 006°42'1413.9
2015-Mar-19 00:33N 43°02' E 006°56'1413.8
2015-Mar-18 23:33N 43°11' E 007°11'1413.7
2015-Mar-18 22:33N 43°20' E 007°26'1313.2
2015-Mar-18 21:33N 43°28' E 007°39'4113.6
2015-Mar-18 18:32N 43°54' E 008°24'1313.0
2015-Mar-18 17:31N 44°01' E 008°39'1212.3
2015-Mar-18 16:33N 44°13' E 008°43'1212.5
2015-Mar-18 15:33N 44°25' E 008°48'1 0.6
2015-Mar-18 13:29N 44°25' E 008°50'0 0.0
2015-Mar-18 12:32N 44°25' E 008°50'1 0.1
2015-Mar-18 05:33N 44°25' E 008°49'9 9.0
2015-Mar-18 04:31N 44°16' E 008°49'4 4.7
2015-Mar-18 03:33N 44°12' E 008°51'7 6.9
2015-Mar-18 02:33N 44°18' E 008°49'1110.5
2015-Mar-18 01:33N 44°10' E 008°40'58 9.6
2015-Mar-17 19:32N 43°30' E 007°41'9 9.2
2015-Mar-17 18:33N 43°25' E 007°31'  
Track history (hours):
 
Tides and Currents Weather Stations Pressure Air Temp Water Temp Dewpoint Dewpoint Depression Visibility Wind Speed Wind Dir Waves Ship Positions

Othello

Last reported at 2015-Mar-27 18:06 UTC. Time now 2015-Mar-31 03:22 UTC.
Position N 39°26' W 009°55'.

Length 104 m; draft 7.4 m.

Type: Ship. MMSI: 253279000.

Date/timePositionNaut miles runAvg speedWind from/ knotsBaromVisibWave heightAir tempDewpointWater temp
2015-Mar-27 18:06N 39°26' W 009°55'810.1
2015-Mar-27 17:18N 39°18' W 009°56'810.1
2015-Mar-27 16:32N 39°10' W 009°56'1110.3
2015-Mar-27 15:26N 38°58' W 009°57'910.4
2015-Mar-27 14:33N 38°49' W 009°56'1110.6
2015-Mar-27 13:33N 38°39' W 009°55'1010.5
2015-Mar-27 12:33N 38°28' W 009°53'1110.6
2015-Mar-27 11:33N 38°18' W 009°50'1110.6
2015-Mar-27 10:32N 38°07' W 009°48'1010.3
2015-Mar-27 09:33N 37°57' W 009°46'1110.6
2015-Mar-27 08:32N 37°47' W 009°43'1110.7
2015-Mar-27 07:31N 37°36' W 009°46'10 9.9
2015-Mar-27 06:31N 37°27' W 009°50'24 8.2
2015-Mar-27 03:33N 37°02' W 009°52'  
2015-Mar-21 10:31N 35°59' W 005°29'1010.4
2015-Mar-21 09:33N 36°03' W 005°18'20612.1
2015-Mar-20 16:28N 37°07' W 001°13'1212.8
2015-Mar-20 15:33N 37°15' W 001°02'1313.0
2015-Mar-20 14:33N 37°24' W 000°50'1413.6
2015-Mar-20 13:33N 37°32' W 000°37'1313.0
2015-Mar-20 12:34N 37°42' W 000°27'1312.8
2015-Mar-20 11:33N 37°54' W 000°19'1313.1
2015-Mar-20 10:33N 38°05' W 000°10'11813.0
2015-Mar-20 01:30N 39°31' E 001°33'1412.6
2015-Mar-20 00:25N 39°39' E 001°47'1112.4
2015-Mar-19 23:33N 39°47' E 001°57'1312.6
2015-Mar-19 22:33N 39°55' E 002°10'1312.7
2015-Mar-19 21:33N 40°03' E 002°22'1312.7
2015-Mar-19 20:33N 40°12' E 002°34'1312.7
2015-Mar-19 19:33N 40°20' E 002°47'1312.9
2015-Mar-19 18:33N 40°29' E 002°60'1312.8
2015-Mar-19 17:33N 40°37' E 003°13'1312.8
2015-Mar-19 16:33N 40°46' E 003°25'1312.7
2015-Mar-19 15:33N 40°54' E 003°38'1313.0
2015-Mar-19 14:32N 41°03' E 003°51'1615.3
2015-Mar-19 13:30N 41°13' E 004°07'1010.1
2015-Mar-19 12:31N 41°19' E 004°17'1413.9
2015-Mar-19 11:30N 41°29' E 004°31'1111.6
2015-Mar-19 10:33N 41°36' E 004°42'1713.1
2015-Mar-19 09:16N 41°47' E 004°59'913.4
2015-Mar-19 08:33N 41°53' E 005°09'1312.5
2015-Mar-19 07:32N 42°02' E 005°21'1313.0
2015-Mar-19 06:32N 42°10' E 005°35'5213.1
2015-Mar-19 02:31N 42°45' E 006°28'1313.5
2015-Mar-19 01:33N 42°53' E 006°42'1413.9
2015-Mar-19 00:33N 43°02' E 006°56'1413.8
2015-Mar-18 23:33N 43°11' E 007°11'1413.7
2015-Mar-18 22:33N 43°20' E 007°26'1313.2
2015-Mar-18 21:33N 43°28' E 007°39'4113.6
2015-Mar-18 18:32N 43°54' E 008°24'1313.0
2015-Mar-18 17:31N 44°01' E 008°39'1212.3
2015-Mar-18 16:33N 44°13' E 008°43'1212.5
2015-Mar-18 15:33N 44°25' E 008°48'1 0.6
2015-Mar-18 13:29N 44°25' E 008°50'0 0.0
2015-Mar-18 12:32N 44°25' E 008°50'1 0.1
2015-Mar-18 05:33N 44°25' E 008°49'9 9.0
2015-Mar-18 04:31N 44°16' E 008°49'4 4.7
2015-Mar-18 03:33N 44°12' E 008°51'7 6.9
2015-Mar-18 02:33N 44°18' E 008°49'1110.5
2015-Mar-18 01:33N 44°10' E 008°40'58 9.6
2015-Mar-17 19:32N 43°30' E 007°41'9 9.2
2015-Mar-17 18:33N 43°25' E 007°31'  

Dump ship's entire track history